DTYO2: Dirty Creek

Data processed at Tue May 21 2019 22:30


All information presented herein is the property of the government of the United States of America and may be revised or deleted at any time without prior notice.
Dissemination of this information without the expressed written consent of the Public Affairs Office, Tulsa District U.S. Army Corps of Engineers is strictly prohibited.
These data are gathered electronically and, as presented, have not undergone any form of quality control. These data are not guaranteed to be valid or correct.
Go to home page.
Go to station list.
Go to home page.

Downstream station:


Previous Day
Next Day
Current Day
    
SHEF ID:       DTYO2     Dirty Creek
STATION TYPE:  
Regulating: Stage =    19.00, Flow =     2766

               PRECIP     STAGE  RIV-FLOW   VOLTAGE  BAT-LOAD
                   in        ft       cfs      volt      volt
              Ccp-Rev   Ccp-Rev   Ccp-Rev   Ccp-Rev   Ccp-Rev
(US/Central)
05/21 00:00      0.00      9.07       457     12.81     12.65
05/21 01:00      0.00      8.81       426     12.73     12.57
05/21 02:00      0.00      8.57       399     12.73     12.57
05/21 03:00      0.00      8.35       374     12.73     12.57
05/21 04:00      0.00      8.15       353     12.73     12.57
05/21 05:00      0.00      7.97       334     12.73     12.57
05/21 06:00      0.00      7.80       316     12.73     12.57
05/21 07:00      0.00      7.65       296     12.73     12.57
05/21 08:00      0.00      7.50       276     12.73     12.57
05/21 09:00      0.07      7.40       264     12.73     12.57
05/21 10:00      0.46      7.46       271     12.73     12.57
05/21 11:00      0.00      7.53       280     13.05     12.81
05/21 12:00      0.01      7.75       309     12.89     12.81
05/21 13:00      0.00      8.14       352     12.81     12.65
05/21 14:00      0.00      8.78       423     12.81     12.65
05/21 15:00      0.00      9.75       541     13.05     12.65
05/21 16:00      0.00     10.91       676     13.29     13.05
05/21 17:00      0.00     11.93       806     13.29     13.13
05/21 18:00      0.00     12.72       925     13.29     13.05
05/21 19:00      0.00     13.29      1036     13.21     12.97
05/21 20:00      0.00     13.63      1105     12.97     12.81
05/21 21:00      0.00     13.81      1143     12.81     12.65
05/21 22:00      ----      ----      ----      ----      ----
05/21 23:00      ----      ----      ----      ----      ----